Time;durP1;ratioP1;P1;durP2;ratioP2;P2;SDS_P1;SDS_P2;PMS_P1;PMS_P2;Temp;Humidity;BMP_temperature;BMP_pressure;BME280_temperature;BME280_humidity;BME280_pressure;Samples;Min_cycle;Max_cycle;Signal;HPM_P1;HPM_P2
2021/12/03 00:31:39;;;;;;;6.53;4.10;;;;;;;1.19;100.00;98997.16;20934358;27;8321730;-57
2021/12/03 00:42:14;;;;;;;4.80;3.87;;;;;;;1.05;100.00;99002.19;21226418;28;20229;-58
2021/12/03 00:52:44;;;;;;;6.00;4.23;;;;;;;0.89;100.00;99030.09;21211046;28;20274;-63
2021/12/03 01:03:15;;;;;;;6.10;4.10;;;;;;;0.93;100.00;99042.16;21206442;28;20228;-57
2021/12/03 01:13:46;;;;;;;7.67;5.00;;;;;;;0.79;100.00;99024.41;21223377;28;20237;-62
2021/12/03 01:24:17;;;;;;;7.83;4.60;;;;;;;0.49;100.00;99041.50;21219435;28;20312;-64
2021/12/03 02:04:39;;;;;;;6.80;4.60;;;;;;;0.72;100.00;99083.38;20852280;27;8292628;-59
2021/12/03 02:35:12;;;;;;;5.80;4.90;;;;;;;0.55;100.00;99140.97;20692336;27;8353444;-61
2021/12/03 02:55:42;;;;;;;6.97;5.13;;;;;;;0.02;100.00;99122.22;20852960;27;8283259;-60
2021/12/03 03:26:08;;;;;;;6.23;4.97;;;;;;;-0.36;100.00;99193.59;20701311;27;8281395;-61
2021/12/03 04:06:27;;;;;;;7.87;6.30;;;;;;;-0.45;100.00;99243.72;20691868;27;8323507;-61
2021/12/03 04:36:55;;;;;;;8.67;7.00;;;;;;;0.07;100.00;99264.50;20783300;27;8263671;-58
2021/12/03 04:47:26;;;;;;;10.03;6.57;;;;;;;0.46;100.00;99286.56;21039421;28;20292;-58
2021/12/03 04:57:55;;;;;;;11.70;7.80;;;;;;;0.63;100.00;99291.13;21140822;28;20240;-58
2021/12/03 05:18:29;;;;;;;6.13;4.77;;;;;;;0.76;100.00;99321.22;20692960;27;8280337;-61
2021/12/03 05:28:59;;;;;;;7.40;6.70;;;;;;;0.81;100.00;99332.41;21043074;28;20321;-58
2021/12/03 05:49:33;;;;;;;5.07;4.57;;;;;;;0.43;100.00;99359.31;20699324;27;8053836;-59
2021/12/03 06:10:07;;;;;;;4.37;3.93;;;;;;;0.02;100.00;99382.69;20720033;27;8337320;-59
2021/12/03 06:20:38;;;;;;;4.53;3.90;;;;;;;-0.48;100.00;99382.72;20959053;28;20230;-65
2021/12/03 06:31:08;;;;;;;4.77;4.37;;;;;;;-0.75;100.00;99388.91;20935137;28;20388;-62
2021/12/03 07:11:31;;;;;;;6.20;5.60;;;;;;;0.01;100.00;99451.78;20688032;27;8331279;-67
2021/12/03 07:51:54;;;;;;;5.60;4.57;;;;;;;-0.09;100.00;99494.97;20753160;27;8301201;-59
2021/12/03 08:02:26;;;;;;;6.13;4.23;;;;;;;0.40;100.00;99503.75;21056172;28;20298;-59
2021/12/03 08:12:56;;;;;;;4.33;3.90;;;;;;;0.47;100.00;99507.88;21056450;28;20222;-59
2021/12/03 08:33:28;;;;;;;5.30;4.40;;;;;;;1.53;100.00;99497.63;20763764;27;8314400;-59
2021/12/03 08:43:59;;;;;;;4.37;3.93;;;;;;;1.35;100.00;99491.31;21056878;28;20230;-59
2021/12/03 09:15:19;;;;;;;4.97;3.90;;;;;;;1.26;100.00;99481.19;20725240;27;8299841;-59
2021/12/03 09:25:53;;;;;;;4.80;3.70;;;;;;;1.37;100.00;99473.72;21057471;28;20726;-59
2021/12/03 09:46:26;;;;;;;7.67;3.70;;;;;;;1.89;100.00;99471.56;20749447;27;8284639;-59
2021/12/03 10:38:36;;;;;;;11.93;3.80;;;;;;;2.25;100.00;99427.88;20699240;27;8318734;-58
2021/12/03 10:49:28;;;;;;;4.70;3.17;;;;;;;2.31;100.00;99409.16;20978944;28;20229;-59
2021/12/03 14:54:45;;;;;;;8.47;5.07;;;;;;;1.17;100.00;99615.56;20691025;27;8296638;-58
2021/12/03 15:36:01;;;;;;;8.53;5.80;;;;;;;1.50;100.00;99643.19;20598751;27;8405664;-59
2021/12/03 16:59:42;;;;;;;8.57;5.13;;;;;;;2.21;100.00;99726.34;20624739;27;8370859;-64
2021/12/03 17:51:45;;;;;;;6.73;4.93;;;;;;;1.47;100.00;99737.09;21148031;27;20237;-65
2021/12/03 18:12:45;;;;;;;10.27;4.77;;;;;;;1.11;100.00;99737.50;20604469;27;8443930;-61
2021/12/03 19:05:02;;;;;;;7.80;4.53;;;;;;;1.87;100.00;99794.34;20747532;27;8247762;-63
2021/12/03 19:15:34;;;;;;;7.13;4.13;;;;;;;2.04;100.00;99802.47;21038752;28;20231;-69
2021/12/03 19:26:04;;;;;;;8.80;5.87;;;;;;;2.09;100.00;99811.03;20910910;28;20978;-65
2021/12/03 19:36:39;;;;;;;7.00;5.60;;;;;;;2.03;100.00;99819.16;20910221;28;20248;-64
2021/12/03 19:47:12;;;;;;;9.33;6.47;;;;;;;1.88;100.00;99819.72;20908144;28;20704;-65
2021/12/03 19:57:47;;;;;;;8.70;6.37;;;;;;;1.46;100.00;99825.59;20906217;28;20258;-67
2021/12/03 20:08:17;;;;;;;11.23;7.13;;;;;;;1.28;100.00;99826.25;20894500;28;20325;-71
2021/12/03 20:28:52;;;;;;;10.60;6.70;;;;;;;0.58;100.00;99828.59;20632768;27;8643679;-64
2021/12/03 20:49:42;;;;;;;10.80;6.60;;;;;;;-0.11;100.00;99819.28;20703200;27;8504963;-68
2021/12/03 22:09:42;;;;;;;9.93;6.40;;;;;;;-1.24;100.00;99818.84;20401251;27;11462116;-65
2021/12/03 23:30:03;;;;;;;7.97;5.10;;;;;;;-1.53;100.00;99762.00;20572250;27;8713674;-67
